sensor_id;sensor_type;location;lat;lon;timestamp;P1;durP1;ratioP1;P2;durP2;ratioP2
15905;SDS011;8051;50.820;4.884;2023-12-07T00:01:29;120.07;;;38.87;;
15905;SDS011;8051;50.820;4.884;2023-12-07T00:03:57;133.23;;;41.57;;
15905;SDS011;8051;50.820;4.884;2023-12-07T00:06:24;107.03;;;39.13;;
15905;SDS011;8051;50.820;4.884;2023-12-07T00:08:52;116.27;;;41.80;;
15905;SDS011;8051;50.820;4.884;2023-12-07T00:11:21;126.27;;;42.40;;
15905;SDS011;8051;50.820;4.884;2023-12-07T00:13:49;144.00;;;45.70;;
15905;SDS011;8051;50.820;4.884;2023-12-07T00:16:16;136.57;;;44.00;;
15905;SDS011;8051;50.820;4.884;2023-12-07T00:18:44;104.30;;;39.67;;
15905;SDS011;8051;50.820;4.884;2023-12-07T00:21:11;147.73;;;46.87;;
15905;SDS011;8051;50.820;4.884;2023-12-07T00:23:38;77.63;;;37.47;;
15905;SDS011;8051;50.820;4.884;2023-12-07T00:26:06;112.83;;;41.77;;
15905;SDS011;8051;50.820;4.884;2023-12-07T00:28:36;138.37;;;44.93;;
15905;SDS011;8051;50.820;4.884;2023-12-07T00:31:03;122.47;;;38.80;;
15905;SDS011;8051;50.820;4.884;2023-12-07T00:33:31;103.77;;;37.30;;
15905;SDS011;8051;50.820;4.884;2023-12-07T00:35:58;104.70;;;35.93;;
15905;SDS011;8051;50.820;4.884;2023-12-07T00:38:26;116.63;;;37.80;;
15905;SDS011;8051;50.820;4.884;2023-12-07T00:40:53;101.30;;;35.07;;
15905;SDS011;8051;50.820;4.884;2023-12-07T00:43:20;96.10;;;38.77;;
15905;SDS011;8051;50.820;4.884;2023-12-07T00:45:49;85.57;;;37.27;;
15905;SDS011;8051;50.820;4.884;2023-12-07T00:48:17;116.67;;;39.27;;
15905;SDS011;8051;50.820;4.884;2023-12-07T00:50:44;88.00;;;34.37;;
15905;SDS011;8051;50.820;4.884;2023-12-07T00:53:12;72.23;;;31.27;;
15905;SDS011;8051;50.820;4.884;2023-12-07T00:55:40;93.53;;;36.70;;
15905;SDS011;8051;50.820;4.884;2023-12-07T00:58:07;105.97;;;38.70;;
15905;SDS011;8051;50.820;4.884;2023-12-07T01:00:35;97.27;;;37.40;;
15905;SDS011;8051;50.820;4.884;2023-12-07T01:03:03;82.80;;;36.47;;
15905;SDS011;8051;50.820;4.884;2023-12-07T01:05:31;121.00;;;41.40;;
15905;SDS011;8051;50.820;4.884;2023-12-07T01:07:58;129.60;;;41.17;;
15905;SDS011;8051;50.820;4.884;2023-12-07T01:10:26;97.70;;;37.10;;
15905;SDS011;8051;50.820;4.884;2023-12-07T01:12:53;148.73;;;43.27;;
15905;SDS011;8051;50.820;4.884;2023-12-07T01:15:21;154.53;;;42.73;;
15905;SDS011;8051;50.820;4.884;2023-12-07T01:17:48;96.30;;;34.97;;
15905;SDS011;8051;50.820;4.884;2023-12-07T01:20:17;82.60;;;36.27;;
15905;SDS011;8051;50.820;4.884;2023-12-07T01:22:45;125.87;;;40.47;;
15905;SDS011;8051;50.820;4.884;2023-12-07T01:25:12;122.70;;;42.57;;
15905;SDS011;8051;50.820;4.884;2023-12-07T01:27:45;119.23;;;41.37;;
15905;SDS011;8051;50.820;4.884;2023-12-07T01:30:12;85.10;;;39.00;;
15905;SDS011;8051;50.820;4.884;2023-12-07T01:32:40;112.63;;;41.20;;
15905;SDS011;8051;50.820;4.884;2023-12-07T01:35:08;116.00;;;41.93;;
15905;SDS011;8051;50.820;4.884;2023-12-07T01:37:37;99.33;;;40.87;;
15905;SDS011;8051;50.820;4.884;2023-12-07T01:40:05;104.53;;;40.27;;
15905;SDS011;8051;50.820;4.884;2023-12-07T01:42:35;147.70;;;46.67;;
15905;SDS011;8051;50.820;4.884;2023-12-07T01:45:04;103.17;;;39.47;;
15905;SDS011;8051;50.820;4.884;2023-12-07T01:47:32;93.30;;;38.07;;
15905;SDS011;8051;50.820;4.884;2023-12-07T01:50:02;93.90;;;38.60;;
15905;SDS011;8051;50.820;4.884;2023-12-07T01:52:32;90.33;;;37.67;;
15905;SDS011;8051;50.820;4.884;2023-12-07T01:55:03;110.20;;;40.27;;
15905;SDS011;8051;50.820;4.884;2023-12-07T01:57:33;104.40;;;41.10;;
15905;SDS011;8051;50.820;4.884;2023-12-07T02:00:01;103.67;;;39.37;;
15905;SDS011;8051;50.820;4.884;2023-12-07T02:02:29;80.83;;;34.77;;
15905;SDS011;8051;50.820;4.884;2023-12-07T02:04:57;73.00;;;31.30;;
15905;SDS011;8051;50.820;4.884;2023-12-07T02:07:24;102.10;;;35.60;;
15905;SDS011;8051;50.820;4.884;2023-12-07T02:09:53;99.83;;;37.53;;
15905;SDS011;8051;50.820;4.884;2023-12-07T02:12:22;104.93;;;38.67;;
15905;SDS011;8051;50.820;4.884;2023-12-07T02:14:50;122.57;;;38.60;;
15905;SDS011;8051;50.820;4.884;2023-12-07T02:17:20;81.17;;;32.80;;
15905;SDS011;8051;50.820;4.884;2023-12-07T02:19:55;81.60;;;35.27;;
15905;SDS011;8051;50.820;4.884;2023-12-07T02:22:41;73.10;;;34.00;;
15905;SDS011;8051;50.820;4.884;2023-12-07T02:25:14;82.00;;;35.70;;
15905;SDS011;8051;50.820;4.884;2023-12-07T02:27:46;76.93;;;34.30;;
15905;SDS011;8051;50.820;4.884;2023-12-07T02:30:13;70.20;;;32.70;;
15905;SDS011;8051;50.820;4.884;2023-12-07T02:32:41;67.93;;;35.03;;
15905;SDS011;8051;50.820;4.884;2023-12-07T02:35:11;89.47;;;35.77;;
15905;SDS011;8051;50.820;4.884;2023-12-07T02:37:41;89.23;;;39.30;;
15905;SDS011;8051;50.820;4.884;2023-12-07T02:40:10;101.70;;;41.30;;
15905;SDS011;8051;50.820;4.884;2023-12-07T02:42:40;109.27;;;44.23;;
15905;SDS011;8051;50.820;4.884;2023-12-07T02:45:10;100.10;;;44.73;;
15905;SDS011;8051;50.820;4.884;2023-12-07T02:47:38;102.57;;;46.93;;
15905;SDS011;8051;50.820;4.884;2023-12-07T02:50:07;112.53;;;46.50;;
15905;SDS011;8051;50.820;4.884;2023-12-07T02:52:35;118.60;;;47.07;;
15905;SDS011;8051;50.820;4.884;2023-12-07T02:55:03;111.17;;;48.00;;
15905;SDS011;8051;50.820;4.884;2023-12-07T02:57:31;100.27;;;46.80;;
15905;SDS011;8051;50.820;4.884;2023-12-07T02:59:59;101.30;;;46.63;;
15905;SDS011;8051;50.820;4.884;2023-12-07T03:02:28;100.37;;;45.67;;
15905;SDS011;8051;50.820;4.884;2023-12-07T03:04:55;87.33;;;43.10;;
15905;SDS011;8051;50.820;4.884;2023-12-07T03:07:23;74.80;;;39.93;;
15905;SDS011;8051;50.820;4.884;2023-12-07T03:09:50;80.60;;;38.13;;
15905;SDS011;8051;50.820;4.884;2023-12-07T03:12:17;59.87;;;35.03;;
15905;SDS011;8051;50.820;4.884;2023-12-07T03:14:45;70.60;;;36.47;;
15905;SDS011;8051;50.820;4.884;2023-12-07T03:17:12;60.47;;;34.53;;
15905;SDS011;8051;50.820;4.884;2023-12-07T03:19:41;67.77;;;33.77;;
15905;SDS011;8051;50.820;4.884;2023-12-07T03:22:09;61.90;;;34.63;;
15905;SDS011;8051;50.820;4.884;2023-12-07T03:24:38;55.00;;;33.63;;
15905;SDS011;8051;50.820;4.884;2023-12-07T03:27:07;59.50;;;35.07;;
15905;SDS011;8051;50.820;4.884;2023-12-07T03:29:34;59.03;;;34.00;;
15905;SDS011;8051;50.820;4.884;2023-12-07T03:32:02;58.20;;;34.47;;
15905;SDS011;8051;50.820;4.884;2023-12-07T03:34:29;48.53;;;31.67;;
15905;SDS011;8051;50.820;4.884;2023-12-07T03:36:58;56.93;;;30.93;;
15905;SDS011;8051;50.820;4.884;2023-12-07T03:39:26;58.17;;;31.27;;
15905;SDS011;8051;50.820;4.884;2023-12-07T03:41:54;58.00;;;31.63;;
15905;SDS011;8051;50.820;4.884;2023-12-07T03:44:22;49.90;;;29.90;;
15905;SDS011;8051;50.820;4.884;2023-12-07T03:46:51;54.63;;;32.00;;
15905;SDS011;8051;50.820;4.884;2023-12-07T03:49:19;49.57;;;29.50;;
15905;SDS011;8051;50.820;4.884;2023-12-07T03:51:46;46.53;;;30.10;;
15905;SDS011;8051;50.820;4.884;2023-12-07T03:54:15;45.80;;;29.20;;
15905;SDS011;8051;50.820;4.884;2023-12-07T03:56:42;47.03;;;28.17;;
15905;SDS011;8051;50.820;4.884;2023-12-07T03:59:10;48.70;;;29.80;;
15905;SDS011;8051;50.820;4.884;2023-12-07T04:01:37;44.93;;;29.50;;
15905;SDS011;8051;50.820;4.884;2023-12-07T04:04:05;46.77;;;31.27;;
15905;SDS011;8051;50.820;4.884;2023-12-07T04:06:32;42.57;;;29.63;;
15905;SDS011;8051;50.820;4.884;2023-12-07T04:08:59;48.83;;;30.83;;
15905;SDS011;8051;50.820;4.884;2023-12-07T04:11:29;50.77;;;32.20;;
15905;SDS011;8051;50.820;4.884;2023-12-07T04:13:56;50.00;;;30.30;;
15905;SDS011;8051;50.820;4.884;2023-12-07T04:16:23;49.27;;;31.40;;
15905;SDS011;8051;50.820;4.884;2023-12-07T04:18:51;49.73;;;31.60;;
15905;SDS011;8051;50.820;4.884;2023-12-07T04:21:18;47.20;;;31.20;;
15905;SDS011;8051;50.820;4.884;2023-12-07T04:23:48;44.87;;;31.77;;
15905;SDS011;8051;50.820;4.884;2023-12-07T04:26:15;45.80;;;32.67;;
15905;SDS011;8051;50.820;4.884;2023-12-07T04:28:44;46.13;;;30.60;;
15905;SDS011;8051;50.820;4.884;2023-12-07T04:31:12;44.10;;;31.67;;
15905;SDS011;8051;50.820;4.884;2023-12-07T04:33:39;44.87;;;31.30;;
15905;SDS011;8051;50.820;4.884;2023-12-07T04:36:07;45.57;;;30.87;;
15905;SDS011;8051;50.820;4.884;2023-12-07T04:38:34;37.97;;;30.70;;
15905;SDS011;8051;50.820;4.884;2023-12-07T04:41:02;43.07;;;31.67;;
15905;SDS011;8051;50.820;4.884;2023-12-07T04:43:30;42.47;;;33.03;;
15905;SDS011;8051;50.820;4.884;2023-12-07T04:46:00;40.57;;;30.43;;
15905;SDS011;8051;50.820;4.884;2023-12-07T04:48:27;48.20;;;31.73;;
15905;SDS011;8051;50.820;4.884;2023-12-07T04:50:55;41.50;;;31.80;;
15905;SDS011;8051;50.820;4.884;2023-12-07T04:53:22;41.13;;;32.03;;
15905;SDS011;8051;50.820;4.884;2023-12-07T04:55:49;38.40;;;30.70;;
15905;SDS011;8051;50.820;4.884;2023-12-07T04:58:17;35.53;;;30.93;;
15905;SDS011;8051;50.820;4.884;2023-12-07T05:00:44;37.10;;;29.53;;
15905;SDS011;8051;50.820;4.884;2023-12-07T05:03:14;40.67;;;31.63;;
15905;SDS011;8051;50.820;4.884;2023-12-07T05:05:41;40.90;;;32.17;;
15905;SDS011;8051;50.820;4.884;2023-12-07T05:08:09;39.47;;;31.23;;
15905;SDS011;8051;50.820;4.884;2023-12-07T05:10:36;39.63;;;31.33;;
15905;SDS011;8051;50.820;4.884;2023-12-07T05:13:03;36.87;;;30.13;;
15905;SDS011;8051;50.820;4.884;2023-12-07T05:15:31;34.33;;;30.77;;
15905;SDS011;8051;50.820;4.884;2023-12-07T05:17:59;38.17;;;32.13;;
15905;SDS011;8051;50.820;4.884;2023-12-07T05:20:28;38.63;;;32.63;;
15905;SDS011;8051;50.820;4.884;2023-12-07T05:22:56;42.77;;;33.53;;
15905;SDS011;8051;50.820;4.884;2023-12-07T05:25:23;38.13;;;31.93;;
15905;SDS011;8051;50.820;4.884;2023-12-07T05:27:51;40.63;;;31.13;;
15905;SDS011;8051;50.820;4.884;2023-12-07T05:30:18;36.33;;;29.83;;
15905;SDS011;8051;50.820;4.884;2023-12-07T05:32:46;37.97;;;32.40;;
15905;SDS011;8051;50.820;4.884;2023-12-07T05:35:13;35.57;;;30.80;;
15905;SDS011;8051;50.820;4.884;2023-12-07T05:37:42;36.63;;;31.60;;
15905;SDS011;8051;50.820;4.884;2023-12-07T05:40:10;43.77;;;30.37;;
15905;SDS011;8051;50.820;4.884;2023-12-07T05:42:38;38.37;;;32.17;;
15905;SDS011;8051;50.820;4.884;2023-12-07T05:45:06;37.57;;;31.57;;
15905;SDS011;8051;50.820;4.884;2023-12-07T05:47:35;37.70;;;32.90;;
15905;SDS011;8051;50.820;4.884;2023-12-07T05:50:03;47.07;;;31.93;;
15905;SDS011;8051;50.820;4.884;2023-12-07T05:52:31;39.10;;;33.60;;
15905;SDS011;8051;50.820;4.884;2023-12-07T05:55:00;42.37;;;34.50;;
15905;SDS011;8051;50.820;4.884;2023-12-07T05:57:28;37.30;;;31.23;;
15905;SDS011;8051;50.820;4.884;2023-12-07T05:59:56;39.03;;;31.47;;
15905;SDS011;8051;50.820;4.884;2023-12-07T06:02:23;38.70;;;32.10;;
15905;SDS011;8051;50.820;4.884;2023-12-07T06:04:51;38.30;;;32.63;;
15905;SDS011;8051;50.820;4.884;2023-12-07T06:07:19;41.57;;;30.90;;
15905;SDS011;8051;50.820;4.884;2023-12-07T06:09:46;40.77;;;31.60;;
15905;SDS011;8051;50.820;4.884;2023-12-07T06:12:15;37.93;;;31.93;;
15905;SDS011;8051;50.820;4.884;2023-12-07T06:14:43;36.03;;;32.07;;
15905;SDS011;8051;50.820;4.884;2023-12-07T06:17:10;37.77;;;32.57;;
15905;SDS011;8051;50.820;4.884;2023-12-07T06:19:38;35.30;;;31.27;;
15905;SDS011;8051;50.820;4.884;2023-12-07T06:22:06;43.90;;;32.27;;
15905;SDS011;8051;50.820;4.884;2023-12-07T06:24:33;36.27;;;30.93;;
15905;SDS011;8051;50.820;4.884;2023-12-07T06:27:01;36.20;;;32.30;;
15905;SDS011;8051;50.820;4.884;2023-12-07T06:29:30;36.03;;;32.33;;
15905;SDS011;8051;50.820;4.884;2023-12-07T06:31:57;38.30;;;32.03;;
15905;SDS011;8051;50.820;4.884;2023-12-07T06:34:25;39.20;;;33.67;;
15905;SDS011;8051;50.820;4.884;2023-12-07T06:36:54;41.67;;;32.93;;
15905;SDS011;8051;50.820;4.884;2023-12-07T06:39:21;36.77;;;32.97;;
15905;SDS011;8051;50.820;4.884;2023-12-07T06:41:49;43.37;;;33.10;;
15905;SDS011;8051;50.820;4.884;2023-12-07T06:44:16;42.37;;;33.63;;
15905;SDS011;8051;50.820;4.884;2023-12-07T06:46:45;38.40;;;34.27;;
15905;SDS011;8051;50.820;4.884;2023-12-07T06:49:12;37.67;;;33.20;;
15905;SDS011;8051;50.820;4.884;2023-12-07T06:51:40;37.33;;;33.50;;
15905;SDS011;8051;50.820;4.884;2023-12-07T06:54:07;36.37;;;32.40;;
15905;SDS011;8051;50.820;4.884;2023-12-07T06:56:34;36.20;;;32.47;;
15905;SDS011;8051;50.820;4.884;2023-12-07T06:59:02;34.43;;;30.97;;
15905;SDS011;8051;50.820;4.884;2023-12-07T07:01:29;35.00;;;31.37;;
15905;SDS011;8051;50.820;4.884;2023-12-07T07:03:58;38.10;;;32.83;;
15905;SDS011;8051;50.820;4.884;2023-12-07T07:06:26;38.33;;;34.23;;
15905;SDS011;8051;50.820;4.884;2023-12-07T07:08:53;34.67;;;31.00;;
15905;SDS011;8051;50.820;4.884;2023-12-07T07:11:20;36.70;;;32.60;;
15905;SDS011;8051;50.820;4.884;2023-12-07T07:13:48;35.70;;;31.97;;
15905;SDS011;8051;50.820;4.884;2023-12-07T07:16:15;39.30;;;31.23;;
15905;SDS011;8051;50.820;4.884;2023-12-07T07:18:44;36.53;;;30.50;;
15905;SDS011;8051;50.820;4.884;2023-12-07T07:21:13;35.30;;;31.50;;
15905;SDS011;8051;50.820;4.884;2023-12-07T07:23:40;37.87;;;31.80;;
15905;SDS011;8051;50.820;4.884;2023-12-07T07:26:08;34.07;;;30.60;;
15905;SDS011;8051;50.820;4.884;2023-12-07T07:28:35;38.20;;;32.23;;
15905;SDS011;8051;50.820;4.884;2023-12-07T07:31:02;35.27;;;31.43;;
15905;SDS011;8051;50.820;4.884;2023-12-07T07:33:30;34.17;;;30.67;;
15905;SDS011;8051;50.820;4.884;2023-12-07T07:35:57;41.27;;;30.13;;
15905;SDS011;8051;50.820;4.884;2023-12-07T07:38:26;40.53;;;32.27;;
15905;SDS011;8051;50.820;4.884;2023-12-07T07:40:54;38.00;;;31.80;;
15905;SDS011;8051;50.820;4.884;2023-12-07T07:43:21;37.43;;;30.87;;
15905;SDS011;8051;50.820;4.884;2023-12-07T07:45:49;37.50;;;30.27;;
15905;SDS011;8051;50.820;4.884;2023-12-07T07:48:16;34.70;;;30.90;;
15905;SDS011;8051;50.820;4.884;2023-12-07T07:50:43;36.33;;;31.60;;
15905;SDS011;8051;50.820;4.884;2023-12-07T07:53:11;33.27;;;29.73;;
15905;SDS011;8051;50.820;4.884;2023-12-07T07:55:40;45.20;;;30.60;;
15905;SDS011;8051;50.820;4.884;2023-12-07T07:58:07;34.43;;;29.87;;
15905;SDS011;8051;50.820;4.884;2023-12-07T08:00:35;33.83;;;29.30;;
15905;SDS011;8051;50.820;4.884;2023-12-07T08:03:02;35.30;;;30.90;;
15905;SDS011;8051;50.820;4.884;2023-12-07T08:05:30;37.33;;;31.93;;
15905;SDS011;8051;50.820;4.884;2023-12-07T08:07:58;34.77;;;30.37;;
15905;SDS011;8051;50.820;4.884;2023-12-07T08:10:26;39.83;;;32.37;;
15905;SDS011;8051;50.820;4.884;2023-12-07T08:12:54;39.03;;;30.90;;
15905;SDS011;8051;50.820;4.884;2023-12-07T08:15:22;37.27;;;31.63;;
15905;SDS011;8051;50.820;4.884;2023-12-07T08:17:49;35.63;;;30.60;;
15905;SDS011;8051;50.820;4.884;2023-12-07T08:20:17;33.83;;;29.20;;
15905;SDS011;8051;50.820;4.884;2023-12-07T08:22:44;41.53;;;31.73;;
15905;SDS011;8051;50.820;4.884;2023-12-07T08:25:12;40.13;;;29.83;;
15905;SDS011;8051;50.820;4.884;2023-12-07T08:27:40;36.23;;;31.77;;
15905;SDS011;8051;50.820;4.884;2023-12-07T08:30:11;33.57;;;29.67;;
15905;SDS011;8051;50.820;4.884;2023-12-07T08:32:39;37.10;;;30.83;;
15905;SDS011;8051;50.820;4.884;2023-12-07T08:35:06;35.93;;;30.03;;
15905;SDS011;8051;50.820;4.884;2023-12-07T08:37:36;34.67;;;30.10;;
15905;SDS011;8051;50.820;4.884;2023-12-07T08:40:05;38.97;;;31.50;;
15905;SDS011;8051;50.820;4.884;2023-12-07T08:42:32;35.27;;;30.50;;
15905;SDS011;8051;50.820;4.884;2023-12-07T08:44:59;34.43;;;30.63;;
15905;SDS011;8051;50.820;4.884;2023-12-07T08:47:28;41.63;;;31.40;;
15905;SDS011;8051;50.820;4.884;2023-12-07T08:49:56;45.27;;;31.63;;
15905;SDS011;8051;50.820;4.884;2023-12-07T08:52:24;42.07;;;31.67;;
15905;SDS011;8051;50.820;4.884;2023-12-07T08:54:52;38.53;;;32.23;;
15905;SDS011;8051;50.820;4.884;2023-12-07T08:57:19;44.50;;;32.13;;
15905;SDS011;8051;50.820;4.884;2023-12-07T08:59:47;36.73;;;31.47;;
15905;SDS011;8051;50.820;4.884;2023-12-07T09:02:14;37.27;;;30.93;;
15905;SDS011;8051;50.820;4.884;2023-12-07T09:04:43;35.23;;;31.70;;
15905;SDS011;8051;50.820;4.884;2023-12-07T09:07:10;41.57;;;32.33;;
15905;SDS011;8051;50.820;4.884;2023-12-07T09:09:41;36.53;;;32.60;;
15905;SDS011;8051;50.820;4.884;2023-12-07T09:12:12;34.47;;;31.03;;
15905;SDS011;8051;50.820;4.884;2023-12-07T09:14:41;35.50;;;29.80;;
15905;SDS011;8051;50.820;4.884;2023-12-07T09:17:08;34.20;;;30.67;;
15905;SDS011;8051;50.820;4.884;2023-12-07T09:19:36;34.70;;;31.10;;
15905;SDS011;8051;50.820;4.884;2023-12-07T09:22:05;35.20;;;31.50;;
15905;SDS011;8051;50.820;4.884;2023-12-07T09:24:32;33.17;;;29.90;;
15905;SDS011;8051;50.820;4.884;2023-12-07T09:26:59;33.53;;;29.93;;
15905;SDS011;8051;50.820;4.884;2023-12-07T09:29:26;36.67;;;31.03;;
15905;SDS011;8051;50.820;4.884;2023-12-07T09:31:54;35.03;;;31.37;;
15905;SDS011;8051;50.820;4.884;2023-12-07T09:34:21;34.63;;;31.47;;
15905;SDS011;8051;50.820;4.884;2023-12-07T09:36:49;35.27;;;31.83;;
15905;SDS011;8051;50.820;4.884;2023-12-07T09:39:32;38.07;;;33.93;;
15905;SDS011;8051;50.820;4.884;2023-12-07T09:42:00;34.77;;;31.37;;
15905;SDS011;8051;50.820;4.884;2023-12-07T09:44:28;35.47;;;31.63;;
15905;SDS011;8051;50.820;4.884;2023-12-07T09:46:55;34.73;;;30.87;;
15905;SDS011;8051;50.820;4.884;2023-12-07T09:49:23;34.33;;;31.10;;
15905;SDS011;8051;50.820;4.884;2023-12-07T09:51:51;36.40;;;31.87;;
15905;SDS011;8051;50.820;4.884;2023-12-07T09:54:20;34.20;;;30.80;;
15905;SDS011;8051;50.820;4.884;2023-12-07T09:56:52;36.37;;;32.87;;
15905;SDS011;8051;50.820;4.884;2023-12-07T09:59:20;37.33;;;33.53;;
15905;SDS011;8051;50.820;4.884;2023-12-07T10:01:47;36.13;;;32.73;;
15905;SDS011;8051;50.820;4.884;2023-12-07T10:04:15;34.63;;;31.67;;
15905;SDS011;8051;50.820;4.884;2023-12-07T10:06:43;36.20;;;31.27;;
15905;SDS011;8051;50.820;4.884;2023-12-07T10:09:11;37.23;;;33.37;;
15905;SDS011;8051;50.820;4.884;2023-12-07T10:11:38;36.30;;;32.77;;
15905;SDS011;8051;50.820;4.884;2023-12-07T10:14:08;37.27;;;33.70;;
15905;SDS011;8051;50.820;4.884;2023-12-07T10:16:35;37.70;;;33.87;;
15905;SDS011;8051;50.820;4.884;2023-12-07T10:19:13;39.27;;;35.63;;
15905;SDS011;8051;50.820;4.884;2023-12-07T10:21:46;37.90;;;34.30;;
15905;SDS011;8051;50.820;4.884;2023-12-07T10:24:16;38.20;;;34.70;;
15905;SDS011;8051;50.820;4.884;2023-12-07T10:26:44;39.13;;;34.97;;
15905;SDS011;8051;50.820;4.884;2023-12-07T10:29:13;36.90;;;33.17;;
15905;SDS011;8051;50.820;4.884;2023-12-07T10:31:41;39.57;;;35.43;;
15905;SDS011;8051;50.820;4.884;2023-12-07T10:34:09;39.30;;;35.40;;
15905;SDS011;8051;50.820;4.884;2023-12-07T10:36:36;41.87;;;36.87;;
15905;SDS011;8051;50.820;4.884;2023-12-07T10:39:04;41.97;;;37.50;;
15905;SDS011;8051;50.820;4.884;2023-12-07T10:41:33;41.13;;;37.20;;
15905;SDS011;8051;50.820;4.884;2023-12-07T10:44:04;40.90;;;36.97;;
15905;SDS011;8051;50.820;4.884;2023-12-07T10:46:36;38.13;;;34.23;;
15905;SDS011;8051;50.820;4.884;2023-12-07T10:49:07;39.27;;;35.50;;
15905;SDS011;8051;50.820;4.884;2023-12-07T10:51:38;40.10;;;36.30;;
15905;SDS011;8051;50.820;4.884;2023-12-07T10:54:10;38.70;;;35.03;;
15905;SDS011;8051;50.820;4.884;2023-12-07T10:56:42;38.80;;;34.77;;
15905;SDS011;8051;50.820;4.884;2023-12-07T10:59:11;40.10;;;36.10;;
15905;SDS011;8051;50.820;4.884;2023-12-07T11:01:41;39.00;;;34.33;;
15905;SDS011;8051;50.820;4.884;2023-12-07T11:04:10;38.60;;;34.77;;
15905;SDS011;8051;50.820;4.884;2023-12-07T11:06:39;40.17;;;36.23;;
15905;SDS011;8051;50.820;4.884;2023-12-07T11:09:08;38.47;;;35.03;;
15905;SDS011;8051;50.820;4.884;2023-12-07T11:11:46;37.83;;;34.13;;
15905;SDS011;8051;50.820;4.884;2023-12-07T11:14:17;37.23;;;34.00;;
15905;SDS011;8051;50.820;4.884;2023-12-07T11:16:46;37.57;;;34.30;;
15905;SDS011;8051;50.820;4.884;2023-12-07T11:22:13;38.90;;;35.13;;
15905;SDS011;8051;50.820;4.884;2023-12-07T11:27:29;38.57;;;35.27;;
15905;SDS011;8051;50.820;4.884;2023-12-07T11:29:58;40.73;;;36.77;;
15905;SDS011;8051;50.820;4.884;2023-12-07T11:32:28;39.27;;;35.77;;
15905;SDS011;8051;50.820;4.884;2023-12-07T11:34:59;40.00;;;36.40;;
15905;SDS011;8051;50.820;4.884;2023-12-07T11:40:32;38.80;;;34.80;;
15905;SDS011;8051;50.820;4.884;2023-12-07T11:43:01;37.13;;;34.10;;
15905;SDS011;8051;50.820;4.884;2023-12-07T11:45:40;36.90;;;33.73;;
15905;SDS011;8051;50.820;4.884;2023-12-07T11:48:10;38.77;;;35.13;;
15905;SDS011;8051;50.820;4.884;2023-12-07T11:50:53;38.70;;;35.40;;
15905;SDS011;8051;50.820;4.884;2023-12-07T11:53:22;40.43;;;37.10;;
15905;SDS011;8051;50.820;4.884;2023-12-07T11:55:50;40.60;;;37.17;;
15905;SDS011;8051;50.820;4.884;2023-12-07T11:58:17;39.60;;;36.30;;
15905;SDS011;8051;50.820;4.884;2023-12-07T12:00:45;39.50;;;36.03;;
15905;SDS011;8051;50.820;4.884;2023-12-07T12:03:14;39.47;;;36.17;;
15905;SDS011;8051;50.820;4.884;2023-12-07T12:05:41;41.20;;;37.60;;
15905;SDS011;8051;50.820;4.884;2023-12-07T12:08:10;40.17;;;37.07;;
15905;SDS011;8051;50.820;4.884;2023-12-07T12:10:38;40.30;;;37.33;;
15905;SDS011;8051;50.820;4.884;2023-12-07T12:13:07;41.37;;;38.10;;
15905;SDS011;8051;50.820;4.884;2023-12-07T12:15:35;42.00;;;38.80;;
15905;SDS011;8051;50.820;4.884;2023-12-07T12:18:02;40.83;;;37.40;;
15905;SDS011;8051;50.820;4.884;2023-12-07T12:20:31;41.00;;;37.80;;
15905;SDS011;8051;50.820;4.884;2023-12-07T12:22:59;40.67;;;37.53;;
15905;SDS011;8051;50.820;4.884;2023-12-07T12:25:27;40.77;;;37.23;;
15905;SDS011;8051;50.820;4.884;2023-12-07T12:27:55;40.37;;;37.23;;
15905;SDS011;8051;50.820;4.884;2023-12-07T12:30:24;40.73;;;37.70;;
15905;SDS011;8051;50.820;4.884;2023-12-07T12:32:52;41.67;;;38.47;;
15905;SDS011;8051;50.820;4.884;2023-12-07T12:35:19;40.87;;;37.67;;
15905;SDS011;8051;50.820;4.884;2023-12-07T12:37:49;41.13;;;38.13;;
15905;SDS011;8051;50.820;4.884;2023-12-07T12:40:17;40.17;;;37.17;;
15905;SDS011;8051;50.820;4.884;2023-12-07T12:42:45;40.73;;;37.53;;
15905;SDS011;8051;50.820;4.884;2023-12-07T12:45:14;41.57;;;38.50;;
15905;SDS011;8051;50.820;4.884;2023-12-07T12:47:43;42.13;;;38.90;;
15905;SDS011;8051;50.820;4.884;2023-12-07T12:50:12;40.87;;;37.77;;
15905;SDS011;8051;50.820;4.884;2023-12-07T12:52:59;42.63;;;39.17;;
15905;SDS011;8051;50.820;4.884;2023-12-07T12:55:26;40.80;;;37.50;;
15905;SDS011;8051;50.820;4.884;2023-12-07T12:57:55;40.13;;;37.33;;
15905;SDS011;8051;50.820;4.884;2023-12-07T13:00:22;41.50;;;38.40;;
15905;SDS011;8051;50.820;4.884;2023-12-07T13:02:50;39.97;;;37.00;;
15905;SDS011;8051;50.820;4.884;2023-12-07T13:05:17;40.40;;;37.50;;
15905;SDS011;8051;50.820;4.884;2023-12-07T13:07:44;40.57;;;37.60;;
15905;SDS011;8051;50.820;4.884;2023-12-07T13:10:15;39.30;;;36.30;;
15905;SDS011;8051;50.820;4.884;2023-12-07T13:12:42;40.50;;;37.27;;
15905;SDS011;8051;50.820;4.884;2023-12-07T13:15:10;40.47;;;37.60;;
15905;SDS011;8051;50.820;4.884;2023-12-07T13:17:39;40.53;;;37.60;;
15905;SDS011;8051;50.820;4.884;2023-12-07T13:20:06;41.17;;;38.23;;
15905;SDS011;8051;50.820;4.884;2023-12-07T13:22:36;41.90;;;38.90;;
15905;SDS011;8051;50.820;4.884;2023-12-07T13:25:04;41.57;;;38.40;;
15905;SDS011;8051;50.820;4.884;2023-12-07T13:27:33;41.10;;;38.03;;
15905;SDS011;8051;50.820;4.884;2023-12-07T13:30:01;42.30;;;39.20;;
15905;SDS011;8051;50.820;4.884;2023-12-07T13:32:30;43.43;;;39.87;;
15905;SDS011;8051;50.820;4.884;2023-12-07T13:34:58;52.20;;;47.50;;
15905;SDS011;8051;50.820;4.884;2023-12-07T13:37:25;46.60;;;42.87;;
15905;SDS011;8051;50.820;4.884;2023-12-07T13:39:52;44.37;;;40.77;;
15905;SDS011;8051;50.820;4.884;2023-12-07T13:42:23;41.00;;;37.83;;
15905;SDS011;8051;50.820;4.884;2023-12-07T13:44:53;41.80;;;38.80;;
15905;SDS011;8051;50.820;4.884;2023-12-07T13:47:23;40.37;;;37.33;;
15905;SDS011;8051;50.820;4.884;2023-12-07T13:49:54;43.70;;;40.43;;
15905;SDS011;8051;50.820;4.884;2023-12-07T13:52:22;48.10;;;43.77;;
15905;SDS011;8051;50.820;4.884;2023-12-07T13:54:49;46.50;;;42.53;;
15905;SDS011;8051;50.820;4.884;2023-12-07T13:57:17;45.87;;;42.23;;
15905;SDS011;8051;50.820;4.884;2023-12-07T13:59:44;44.47;;;40.63;;
15905;SDS011;8051;50.820;4.884;2023-12-07T14:02:12;41.23;;;38.33;;
15905;SDS011;8051;50.820;4.884;2023-12-07T14:04:40;42.93;;;39.83;;
15905;SDS011;8051;50.820;4.884;2023-12-07T14:07:08;43.60;;;40.23;;
15905;SDS011;8051;50.820;4.884;2023-12-07T14:09:37;43.97;;;40.57;;
15905;SDS011;8051;50.820;4.884;2023-12-07T14:12:06;44.63;;;41.17;;
15905;SDS011;8051;50.820;4.884;2023-12-07T14:14:36;41.70;;;38.27;;
15905;SDS011;8051;50.820;4.884;2023-12-07T14:17:03;41.30;;;38.00;;
15905;SDS011;8051;50.820;4.884;2023-12-07T14:19:31;42.53;;;39.07;;
15905;SDS011;8051;50.820;4.884;2023-12-07T14:22:00;43.07;;;39.30;;
15905;SDS011;8051;50.820;4.884;2023-12-07T14:24:27;42.63;;;39.07;;
15905;SDS011;8051;50.820;4.884;2023-12-07T14:26:56;41.83;;;38.53;;
15905;SDS011;8051;50.820;4.884;2023-12-07T14:29:23;41.97;;;38.57;;
15905;SDS011;8051;50.820;4.884;2023-12-07T14:31:51;43.20;;;39.93;;
15905;SDS011;8051;50.820;4.884;2023-12-07T14:34:18;42.50;;;39.27;;
15905;SDS011;8051;50.820;4.884;2023-12-07T14:36:46;41.23;;;38.23;;
15905;SDS011;8051;50.820;4.884;2023-12-07T14:39:13;41.40;;;38.23;;
15905;SDS011;8051;50.820;4.884;2023-12-07T14:41:43;42.43;;;39.03;;
15905;SDS011;8051;50.820;4.884;2023-12-07T14:44:12;41.20;;;37.93;;
15905;SDS011;8051;50.820;4.884;2023-12-07T14:46:40;40.67;;;37.77;;
15905;SDS011;8051;50.820;4.884;2023-12-07T14:49:09;40.17;;;37.17;;